createdAt,value
2023-03-27T00:02:26.278Z,10.48
2023-03-27T00:04:54.793Z,9.93
2023-03-27T00:07:22.855Z,8.85
2023-03-27T00:09:50.705Z,8.65
2023-03-27T00:12:18.033Z,9.30
2023-03-27T00:14:46.121Z,9.30
2023-03-27T00:17:13.763Z,8.82
2023-03-27T00:19:41.069Z,9.40
2023-03-27T00:22:08.428Z,9.15
2023-03-27T00:24:36.915Z,9.00
2023-03-27T00:27:04.182Z,8.18
2023-03-27T00:29:31.524Z,7.35
2023-03-27T00:31:58.799Z,6.85
2023-03-27T00:34:26.212Z,6.18
2023-03-27T00:36:53.976Z,6.95
2023-03-27T00:39:21.296Z,6.03
2023-03-27T00:41:49.283Z,6.10
2023-03-27T00:44:24.061Z,6.40
2023-03-27T00:46:54.710Z,6.38
2023-03-27T00:49:23.167Z,5.82
2023-03-27T00:51:53.175Z,6.22
2023-03-27T00:54:26.597Z,6.40
2023-03-27T00:56:55.898Z,6.45
2023-03-27T00:59:26.472Z,6.72
2023-03-27T01:01:53.847Z,6.80
2023-03-27T01:04:22.477Z,6.65
2023-03-27T01:06:53.024Z,6.13
2023-03-27T01:09:20.973Z,5.38
2023-03-27T01:23:09.340Z,4.70
2023-03-27T01:42:23.978Z,6.15
2023-03-27T01:44:57.151Z,5.85
2023-03-27T01:47:32.895Z,5.70
2023-03-27T01:52:59.521Z,5.00
2023-03-27T01:55:30.748Z,5.57
2023-03-27T01:58:03.431Z,4.93
2023-03-27T02:00:51.460Z,6.15
2023-03-27T02:06:06.893Z,6.25
2023-03-27T02:11:13.142Z,6.35
2023-03-27T02:16:23.241Z,5.40
2023-03-27T02:18:56.968Z,6.03
2023-03-27T02:21:24.860Z,7.25
2023-03-27T02:23:53.364Z,5.40
2023-03-27T02:26:21.202Z,6.05
2023-03-27T02:37:20.039Z,5.38
2023-03-27T02:43:01.894Z,6.93
2023-03-27T02:48:30.182Z,7.45
2023-03-27T02:51:03.049Z,5.25
2023-03-27T02:53:34.163Z,5.97
2023-03-27T02:56:03.828Z,6.53
2023-03-27T03:01:13.860Z,6.95
2023-03-27T03:04:08.218Z,7.47
2023-03-27T03:06:56.411Z,6.90
2023-03-27T03:09:25.154Z,7.40
2023-03-27T03:11:54.022Z,6.05
2023-03-27T03:14:26.987Z,7.03
2023-03-27T03:16:54.383Z,7.25
2023-03-27T03:19:24.422Z,6.30
2023-03-27T03:21:52.229Z,6.85
2023-03-27T03:24:19.519Z,6.63
2023-03-27T03:26:50.334Z,6.25
2023-03-27T03:29:19.497Z,6.32
2023-03-27T03:32:04.719Z,6.10
2023-03-27T03:34:33.610Z,7.75
2023-03-27T03:37:01.410Z,6.53
2023-03-27T03:39:31.394Z,6.65
2023-03-27T03:41:58.756Z,6.22
2023-03-27T03:44:26.112Z,5.40
2023-03-27T03:46:54.624Z,5.53
2023-03-27T03:49:22.296Z,5.18
2023-03-27T03:52:03.833Z,6.25
2023-03-27T03:54:33.217Z,5.55
2023-03-27T03:57:00.564Z,6.50
2023-03-27T03:59:28.598Z,7.00
2023-03-27T04:02:28.572Z,7.78
2023-03-27T04:05:08.643Z,5.85
2023-03-27T04:07:40.295Z,7.55
2023-03-27T04:10:39.555Z,7.32
2023-03-27T04:13:14.262Z,7.50
2023-03-27T04:15:53.161Z,7.70
2023-03-27T04:18:30.832Z,7.18
2023-03-27T04:20:59.354Z,7.53
2023-03-27T04:23:30.544Z,7.95
2023-03-27T04:26:02.250Z,6.90
2023-03-27T04:28:51.932Z,7.30
2023-03-27T04:31:39.441Z,6.72
2023-03-27T04:34:26.616Z,6.05
2023-03-27T04:37:06.773Z,7.18
2023-03-27T04:39:39.980Z,6.03
2023-03-27T04:42:07.371Z,6.03
2023-03-27T04:44:35.213Z,4.63
2023-03-27T04:47:03.180Z,5.90
2023-03-27T04:49:31.022Z,5.38
2023-03-27T04:52:03.227Z,5.18
2023-03-27T04:54:32.103Z,5.20
2023-03-27T04:57:02.294Z,4.70
2023-03-27T04:59:40.112Z,5.05
2023-03-27T05:02:27.549Z,4.38
2023-03-27T05:05:02.407Z,4.10
2023-03-27T05:07:32.480Z,4.80
2023-03-27T05:10:02.742Z,5.05
2023-03-27T05:12:31.042Z,4.45
2023-03-27T05:15:06.335Z,4.25
2023-03-27T05:17:41.199Z,3.70
2023-03-27T05:20:12.556Z,4.30
2023-03-27T05:22:40.274Z,4.13
2023-03-27T05:25:18.300Z,4.53
2023-03-27T05:27:47.145Z,4.40
2023-03-27T05:30:17.809Z,4.00
2023-03-27T05:32:48.983Z,4.47
2023-03-27T05:37:54.311Z,3.97
2023-03-27T05:40:28.637Z,4.28
2023-03-27T05:42:56.956Z,3.33
2023-03-27T05:47:58.053Z,4.20
2023-03-27T05:50:28.778Z,3.70
2023-03-27T05:53:02.009Z,4.18
2023-03-27T05:55:35.256Z,4.38
2023-03-27T05:58:02.943Z,4.40
2023-03-27T06:00:34.368Z,3.67
2023-03-27T06:05:50.042Z,3.63
2023-03-27T06:08:17.487Z,4.43
2023-03-27T06:10:46.389Z,3.65
2023-03-27T06:13:21.945Z,3.78
2023-03-27T06:15:54.585Z,3.08
2023-03-27T06:18:42.099Z,2.97
2023-03-27T06:21:11.865Z,3.67
2023-03-27T06:23:39.444Z,3.72
2023-03-27T06:26:12.451Z,3.75
2023-03-27T06:28:40.074Z,3.08
2023-03-27T06:31:08.685Z,3.47
2023-03-27T06:33:41.377Z,3.15
2023-03-27T06:36:21.154Z,3.60
2023-03-27T06:38:50.764Z,3.60
2023-03-27T06:41:18.396Z,3.80
2023-03-27T06:44:05.579Z,3.72
2023-03-27T06:46:53.064Z,4.18
2023-03-27T06:49:27.416Z,4.70
2023-03-27T06:51:54.761Z,4.07
2023-03-27T06:54:22.642Z,4.85
2023-03-27T06:56:53.569Z,4.05
2023-03-27T06:59:22.264Z,5.97
2023-03-27T07:01:55.174Z,5.57
2023-03-27T07:04:36.646Z,4.72
2023-03-27T07:07:11.421Z,4.50
2023-03-27T07:09:42.317Z,4.55
2023-03-27T07:12:11.784Z,4.32
2023-03-27T07:14:41.383Z,3.95
2023-03-27T07:17:09.617Z,4.13
2023-03-27T07:19:56.607Z,3.40
2023-03-27T07:22:27.289Z,3.70
2023-03-27T07:24:56.575Z,3.47
2023-03-27T07:27:25.730Z,3.22
2023-03-27T07:30:00.605Z,3.40
2023-03-27T07:32:37.285Z,3.45
2023-03-27T07:35:06.616Z,3.50
2023-03-27T07:37:54.489Z,2.63
2023-03-27T07:40:50.591Z,2.92
2023-03-27T07:43:37.760Z,2.70
2023-03-27T07:46:06.680Z,3.28
2023-03-27T07:48:36.117Z,2.78
2023-03-27T07:51:13.241Z,3.03
2023-03-27T07:53:42.190Z,3.08
2023-03-27T07:56:15.920Z,3.17
2023-03-27T07:58:47.180Z,3.00
2023-03-27T08:01:19.740Z,3.55
2023-03-27T08:03:49.223Z,3.67
2023-03-27T08:06:19.523Z,3.25
2023-03-27T08:08:47.736Z,4.00
2023-03-27T08:11:23.530Z,4.82
2023-03-27T08:13:58.738Z,4.88
2023-03-27T08:16:29.977Z,3.97
2023-03-27T08:19:01.377Z,4.05
2023-03-27T08:21:33.638Z,4.10
2023-03-27T08:26:49.756Z,3.15
2023-03-27T08:29:17.302Z,4.03
2023-03-27T08:31:47.713Z,3.35
2023-03-27T08:34:15.869Z,3.33
2023-03-27T08:36:50.408Z,3.55
2023-03-27T08:39:17.974Z,3.00
2023-03-27T08:41:55.436Z,3.47
2023-03-27T08:44:30.048Z,2.88
2023-03-27T08:47:02.385Z,2.72
2023-03-27T08:49:46.606Z,3.92
2023-03-27T08:52:25.308Z,4.40
2023-03-27T08:55:00.378Z,3.40
2023-03-27T08:57:36.729Z,3.15
2023-03-27T09:00:20.688Z,2.80
2023-03-27T09:02:57.787Z,3.17
2023-03-27T09:05:36.760Z,3.22
2023-03-27T09:10:51.350Z,3.83
2023-03-27T09:13:49.407Z,3.85
2023-03-27T09:24:38.022Z,4.38
2023-03-27T09:27:34.936Z,4.65
2023-03-27T09:33:00.395Z,3.78
2023-03-27T09:35:28.004Z,4.10
2023-03-27T09:37:59.523Z,4.13
2023-03-27T09:40:36.720Z,3.88
2023-03-27T09:43:28.401Z,3.65
2023-03-27T09:46:00.678Z,3.88
2023-03-27T09:48:37.025Z,4.22
2023-03-27T09:54:21.317Z,4.03
2023-03-27T09:56:53.586Z,5.18
2023-03-27T09:59:27.754Z,4.50
2023-03-27T10:02:16.145Z,4.75
2023-03-27T10:07:35.630Z,4.60
2023-03-27T10:10:23.182Z,5.45
2023-03-27T10:13:11.572Z,3.95
2023-03-27T10:15:44.754Z,4.43
2023-03-27T10:18:27.606Z,4.18
2023-03-27T10:21:33.909Z,3.33
2023-03-27T10:24:06.833Z,4.25
2023-03-27T10:26:54.064Z,4.18
2023-03-27T10:29:27.889Z,4.43
2023-03-27T10:31:57.819Z,3.50
2023-03-27T10:37:50.300Z,3.03
2023-03-27T10:40:40.388Z,3.70
2023-03-27T10:43:40.472Z,3.50
2023-03-27T10:46:12.121Z,3.33
2023-03-27T10:51:45.567Z,3.35
2023-03-27T10:54:59.089Z,3.05
2023-03-27T10:57:31.501Z,2.60
2023-03-27T11:02:58.713Z,4.47
2023-03-27T11:05:36.544Z,3.10
2023-03-27T11:08:18.145Z,2.50
2023-03-27T11:10:47.503Z,2.65
2023-03-27T11:13:28.655Z,2.47
2023-03-27T11:21:54.758Z,2.33
2023-03-27T11:27:15.690Z,2.35
2023-03-27T11:30:08.445Z,2.25
2023-03-27T11:32:56.645Z,2.10
2023-03-27T11:35:25.263Z,2.50
2023-03-27T11:38:17.640Z,2.15
2023-03-27T11:40:48.675Z,2.28
2023-03-27T11:43:18.582Z,2.30
2023-03-27T11:51:42.724Z,3.22
2023-03-27T12:02:58.113Z,2.45
2023-03-27T12:08:55.836Z,2.08
2023-03-27T12:11:30.021Z,1.90
2023-03-27T12:14:14.153Z,2.40
2023-03-27T12:17:13.101Z,2.15
2023-03-27T12:20:38.334Z,2.42
2023-03-27T12:31:53.263Z,2.15
2023-03-27T12:37:02.061Z,1.65
2023-03-27T12:39:29.518Z,1.80
2023-03-27T13:29:16.546Z,1.65
2023-03-27T13:42:44.609Z,1.67
2023-03-27T13:45:25.875Z,2.13
2023-03-27T14:10:32.937Z,1.77
2023-03-27T14:13:32.309Z,1.60
2023-03-27T14:19:16.027Z,2.13
2023-03-27T14:22:02.586Z,2.10
2023-03-27T14:24:40.213Z,1.40
2023-03-27T14:27:23.121Z,2.00
2023-03-27T14:32:50.304Z,1.90
2023-03-27T14:35:31.496Z,1.90
2023-03-27T14:38:08.185Z,1.60
2023-03-27T14:40:47.747Z,1.48
2023-03-27T14:43:21.418Z,2.00
2023-03-27T14:45:56.266Z,2.28
2023-03-27T14:48:27.908Z,2.65
2023-03-27T14:51:02.065Z,2.00
2023-03-27T14:53:44.743Z,2.08
2023-03-27T14:59:03.831Z,2.33
2023-03-27T15:01:45.387Z,2.40
2023-03-27T15:04:14.516Z,1.85
2023-03-27T15:06:43.977Z,2.00
2023-03-27T15:09:20.431Z,2.40
2023-03-27T15:14:38.846Z,1.95
2023-03-27T15:17:11.083Z,2.00
2023-03-27T15:19:45.866Z,1.95
2023-03-27T15:22:35.522Z,2.30
2023-03-27T15:25:07.299Z,2.03
2023-03-27T15:27:38.775Z,2.58
2023-03-27T15:32:52.574Z,11.75
2023-03-27T15:35:38.759Z,24.33
2023-03-27T15:38:08.010Z,7.63
2023-03-27T15:40:38.491Z,8.15
2023-03-27T15:43:21.246Z,5.97
2023-03-27T15:48:35.969Z,2.25
2023-03-27T15:51:05.837Z,2.33
2023-03-27T15:56:26.539Z,2.08
2023-03-27T15:58:55.945Z,2.28
2023-03-27T16:01:37.588Z,2.10
2023-03-27T16:04:07.819Z,2.40
2023-03-27T16:06:38.840Z,2.40
2023-03-27T16:09:18.598Z,2.72
2023-03-27T16:11:47.968Z,2.70
2023-03-27T16:17:19.987Z,2.80
2023-03-27T16:20:13.448Z,2.17
2023-03-27T16:22:40.913Z,2.22
2023-03-27T16:25:11.754Z,2.10
2023-03-27T16:27:50.900Z,2.20
2023-03-27T16:33:00.241Z,2.22
2023-03-27T16:35:29.592Z,1.98
2023-03-27T16:37:56.994Z,2.25
2023-03-27T16:40:24.441Z,2.42
2023-03-27T16:42:51.722Z,2.55
2023-03-27T16:45:19.027Z,2.20
2023-03-27T16:47:50.876Z,2.97
2023-03-27T16:50:22.520Z,2.28
2023-03-27T16:52:49.913Z,2.40
2023-03-27T16:55:17.460Z,1.88
2023-03-27T16:57:46.416Z,2.78
2023-03-27T17:00:15.876Z,3.00
2023-03-27T17:02:44.734Z,3.03
2023-03-27T17:05:12.238Z,2.55
2023-03-27T17:07:42.005Z,3.20
2023-03-27T17:10:10.560Z,2.83
2023-03-27T17:12:37.958Z,2.53
2023-03-27T17:15:06.109Z,2.42
2023-03-27T17:17:33.507Z,2.65
2023-03-27T17:20:01.102Z,3.03
2023-03-27T17:22:30.953Z,2.85
2023-03-27T17:25:01.349Z,2.83
2023-03-27T17:27:28.975Z,2.67
2023-03-27T17:29:56.544Z,2.70
2023-03-27T17:32:27.230Z,2.97
2023-03-27T17:34:55.194Z,3.38
2023-03-27T17:37:23.057Z,2.88
2023-03-27T17:39:50.624Z,2.97
2023-03-27T17:42:18.016Z,2.78
2023-03-27T17:44:45.543Z,2.40
2023-03-27T17:47:13.615Z,2.60
2023-03-27T17:49:43.419Z,2.65
2023-03-27T17:52:12.485Z,3.10
2023-03-27T17:54:40.506Z,3.03
2023-03-27T17:57:08.108Z,3.00
2023-03-27T17:59:36.737Z,3.20
2023-03-27T18:02:04.255Z,3.22
2023-03-27T18:04:31.816Z,2.60
2023-03-27T18:06:59.272Z,3.42
2023-03-27T18:09:26.605Z,3.15
2023-03-27T18:11:55.882Z,3.15
2023-03-27T18:14:23.141Z,3.55
2023-03-27T18:16:52.548Z,3.05
2023-03-27T18:19:19.829Z,2.88
2023-03-27T18:21:47.154Z,3.13
2023-03-27T18:24:14.492Z,2.55
2023-03-27T18:26:42.037Z,2.58
2023-03-27T18:29:10.795Z,3.15
2023-03-27T18:31:38.501Z,2.38
2023-03-27T18:34:06.229Z,3.08
2023-03-27T18:36:33.492Z,1.98
2023-03-27T18:39:00.802Z,2.42
2023-03-27T18:41:28.139Z,2.10
2023-03-27T18:43:55.455Z,2.20
2023-03-27T18:46:22.808Z,3.13
2023-03-27T18:48:50.274Z,2.83
2023-03-27T18:51:18.936Z,2.60
2023-03-27T18:53:46.858Z,2.72
2023-03-27T18:56:14.251Z,2.72
2023-03-27T18:58:42.376Z,2.28
2023-03-27T19:01:10.422Z,2.78
2023-03-27T19:03:39.317Z,2.70
2023-03-27T19:06:09.719Z,3.10
2023-03-27T19:08:38.102Z,2.60
2023-03-27T19:11:06.558Z,3.33
2023-03-27T19:13:53.814Z,3.80
2023-03-27T19:16:41.111Z,3.33
2023-03-27T19:19:27.264Z,3.55
2023-03-27T19:22:08.629Z,3.65
2023-03-27T19:24:41.910Z,3.83
2023-03-27T19:27:24.222Z,3.83
2023-03-27T19:29:53.145Z,3.30
2023-03-27T19:32:21.062Z,3.53
2023-03-27T19:34:48.359Z,3.33
2023-03-27T19:37:15.903Z,3.35
2023-03-27T19:39:43.211Z,3.13
2023-03-27T19:42:11.087Z,3.15
2023-03-27T19:44:38.648Z,2.50
2023-03-27T19:47:07.892Z,3.47
2023-03-27T19:49:35.893Z,2.97
2023-03-27T19:52:23.588Z,3.65
2023-03-27T19:54:50.982Z,3.95
2023-03-27T19:57:18.407Z,3.90
2023-03-27T19:59:46.076Z,4.35
2023-03-27T20:02:13.505Z,3.58
2023-03-27T20:04:41.053Z,4.35
2023-03-27T20:07:08.434Z,4.35
2023-03-27T20:09:36.327Z,3.40
2023-03-27T20:12:04.738Z,3.45
2023-03-27T20:14:32.174Z,3.20
2023-03-27T20:16:59.518Z,3.13
2023-03-27T20:19:30.604Z,3.13
2023-03-27T20:22:00.725Z,3.67
2023-03-27T20:24:29.117Z,2.95
2023-03-27T20:26:59.699Z,2.97
2023-03-27T20:29:27.167Z,3.30
2023-03-27T20:31:54.512Z,3.55
2023-03-27T20:34:22.972Z,3.83
2023-03-27T20:36:53.468Z,4.18
2023-03-27T20:39:32.372Z,3.42
2023-03-27T20:41:59.813Z,4.40
2023-03-27T20:44:35.470Z,3.88
2023-03-27T20:47:11.153Z,3.72
2023-03-27T20:49:43.055Z,4.28
2023-03-27T20:52:12.395Z,2.95
2023-03-27T20:54:39.806Z,2.80
2023-03-27T20:57:09.422Z,2.78
2023-03-27T20:59:36.916Z,3.28
2023-03-27T21:02:05.337Z,3.35
2023-03-27T21:04:32.759Z,3.60
2023-03-27T21:07:00.116Z,2.78
2023-03-27T21:09:27.888Z,3.30
2023-03-27T21:11:56.076Z,3.55
2023-03-27T21:14:23.650Z,2.72
2023-03-27T21:16:51.439Z,2.90
2023-03-27T21:19:21.513Z,2.83
2023-03-27T21:21:49.608Z,2.80
2023-03-27T21:24:17.005Z,3.30
2023-03-27T21:26:47.243Z,3.20
2023-03-27T21:29:15.643Z,2.95
2023-03-27T21:31:43.404Z,3.63
2023-03-27T21:34:11.108Z,2.50
2023-03-27T21:36:38.970Z,3.00
2023-03-27T21:39:06.339Z,2.80
2023-03-27T21:41:33.627Z,2.90
2023-03-27T21:44:01.070Z,3.30
2023-03-27T21:46:28.363Z,2.80
2023-03-27T21:48:55.806Z,3.17
2023-03-27T21:51:23.298Z,3.30
2023-03-27T21:53:50.618Z,2.90
2023-03-27T21:56:17.890Z,2.30
2023-03-27T21:58:45.282Z,3.00
2023-03-27T22:01:12.646Z,2.83
2023-03-27T22:03:39.930Z,2.90
2023-03-27T22:06:12.443Z,3.10
2023-03-27T22:08:42.345Z,3.35
2023-03-27T22:11:11.136Z,3.08
2023-03-27T22:13:39.148Z,2.88
2023-03-27T22:16:16.902Z,3.13
2023-03-27T22:18:44.777Z,3.70
2023-03-27T22:21:15.691Z,2.58
2023-03-27T22:23:43.276Z,3.00
2023-03-27T22:26:10.719Z,2.97
2023-03-27T22:28:38.093Z,3.33
2023-03-27T22:31:05.876Z,3.20
2023-03-27T22:33:33.438Z,3.08
2023-03-27T22:36:01.638Z,2.67
2023-03-27T22:38:30.953Z,3.40
2023-03-27T22:40:59.139Z,2.72
2023-03-27T22:43:28.834Z,2.90
2023-03-27T22:45:56.345Z,3.22
2023-03-27T22:48:23.771Z,2.90
2023-03-27T22:50:55.587Z,2.40
2023-03-27T22:53:23.657Z,2.63
2023-03-27T22:55:52.410Z,2.92
2023-03-27T22:58:31.854Z,2.75
2023-03-27T23:00:59.286Z,2.67
2023-03-27T23:03:28.068Z,3.03
2023-03-27T23:05:56.134Z,2.40
2023-03-27T23:08:27.497Z,3.03
2023-03-27T23:10:57.845Z,2.70
2023-03-27T23:13:26.664Z,3.13
2023-03-27T23:15:53.995Z,2.40
2023-03-27T23:18:24.703Z,3.13
2023-03-27T23:23:32.954Z,3.08
2023-03-27T23:26:00.689Z,3.72
2023-03-27T23:28:31.540Z,3.80
2023-03-27T23:31:02.569Z,2.95
2023-03-27T23:33:34.422Z,3.70
2023-03-27T23:36:06.216Z,3.83
2023-03-27T23:38:33.927Z,3.20
2023-03-27T23:41:02.366Z,3.60
2023-03-27T23:43:30.634Z,3.42
2023-03-27T23:45:59.868Z,3.42
2023-03-27T23:48:29.234Z,3.08
2023-03-27T23:50:57.636Z,3.85
2023-03-27T23:53:26.545Z,3.17
2023-03-27T23:55:56.318Z,3.35
2023-03-27T23:58:24.755Z,3.65
